Time;durP1;ratioP1;P1;durP2;ratioP2;P2;SDS_P1;SDS_P2;PMS_P1;PMS_P2;Temp;Humidity;BMP_temperature;BMP_pressure;BME280_temperature;BME280_humidity;BME280_pressure;Samples;Min_cycle;Max_cycle;Signal;HPM_P1;HPM_P2
2022/03/30 00:00:30;;;;;;;12.60;8.38;;;;;;;14.54;56.55;96041.22;4917255;28;20260;-81
2022/03/30 00:02:56;;;;;;;13.02;8.07;;;;;;;14.47;56.55;96039.00;4958106;28;20156;-81
2022/03/30 00:05:21;;;;;;;12.25;7.88;;;;;;;14.41;56.40;96042.81;4945461;28;20207;-80
2022/03/30 00:07:51;;;;;;;14.07;8.77;;;;;;;14.32;56.61;96039.34;4919818;28;20165;-80
2022/03/30 00:10:16;;;;;;;15.82;9.23;;;;;;;14.40;56.61;96052.53;4938864;28;20697;-80
2022/03/30 00:12:42;;;;;;;12.43;8.40;;;;;;;14.45;56.22;96043.00;4943822;28;20282;-80
2022/03/30 00:15:07;;;;;;;12.35;8.15;;;;;;;14.52;56.03;96038.13;4918397;28;20266;-80
2022/03/30 00:17:33;;;;;;;19.17;8.15;;;;;;;14.52;55.74;96052.00;4930959;28;20216;-80
2022/03/30 00:19:59;;;;;;;10.85;7.13;;;;;;;14.59;55.79;96052.38;4925992;28;20211;-80
2022/03/30 00:22:26;;;;;;;16.77;8.50;;;;;;;14.75;55.41;96050.19;4943420;28;20165;-80
2022/03/30 00:24:51;;;;;;;13.20;7.57;;;;;;;14.82;55.23;96056.84;4944583;28;20705;-80
2022/03/30 00:27:17;;;;;;;12.48;8.32;;;;;;;14.60;56.04;96058.41;4929124;28;20186;-79
2022/03/30 00:29:44;;;;;;;12.70;8.05;;;;;;;14.49;56.68;96055.19;4928806;28;20711;-80
2022/03/30 00:32:10;;;;;;;14.88;8.80;;;;;;;14.41;57.36;96054.06;4945138;28;20350;-79
2022/03/30 00:34:36;;;;;;;16.17;9.07;;;;;;;14.29;57.64;96034.72;4932665;28;20358;-80
2022/03/30 00:37:01;;;;;;;12.32;8.18;;;;;;;14.27;57.83;96029.00;4958447;28;20194;-79
2022/03/30 00:39:27;;;;;;;15.50;8.95;;;;;;;14.18;58.29;96024.47;4960657;28;20693;-79
2022/03/30 00:41:52;;;;;;;19.05;9.13;;;;;;;14.03;59.43;96012.50;4926252;28;20649;-79
2022/03/30 00:44:21;;;;;;;17.02;8.98;;;;;;;13.82;59.95;96009.50;4929739;28;20397;-79
2022/03/30 00:46:46;;;;;;;15.05;9.45;;;;;;;13.75;60.62;96005.75;4943685;28;20708;-79
2022/03/30 00:49:12;;;;;;;18.40;10.02;;;;;;;13.73;60.69;96003.44;4933416;28;20185;-79
2022/03/30 00:51:38;;;;;;;14.68;8.98;;;;;;;13.55;61.59;96002.47;4946979;28;20273;-79
2022/03/30 00:54:03;;;;;;;17.30;9.02;;;;;;;13.81;60.18;96012.41;4914038;28;20207;-79
2022/03/30 00:56:31;;;;;;;19.63;9.40;;;;;;;13.68;61.09;96008.78;4943957;28;20363;-79
2022/03/30 00:58:57;;;;;;;14.60;9.20;;;;;;;13.77;60.47;96001.00;4943197;28;20165;-79
2022/03/30 01:01:23;;;;;;;16.77;8.55;;;;;;;13.80;60.51;96000.44;4943137;28;20275;-78
2022/03/30 01:03:49;;;;;;;17.15;10.23;;;;;;;13.72;60.51;95991.41;4942725;28;20198;-79
2022/03/30 01:06:14;;;;;;;16.25;10.82;;;;;;;13.52;61.27;95984.78;4944779;28;20263;-79
2022/03/30 01:08:39;;;;;;;16.27;10.10;;;;;;;13.48;61.60;95981.19;4944932;28;20242;-79
2022/03/30 01:11:05;;;;;;;17.63;9.50;;;;;;;13.61;61.33;95977.78;4927586;28;20216;-79
2022/03/30 01:13:32;;;;;;;14.98;9.77;;;;;;;13.64;61.61;95977.19;4930028;28;20337;-79
2022/03/30 01:15:58;;;;;;;15.57;9.30;;;;;;;13.60;60.96;95976.22;4943595;28;20625;-79
2022/03/30 01:18:24;;;;;;;17.58;10.35;;;;;;;13.58;61.40;95956.66;4944867;28;20294;-79
2022/03/30 01:20:50;;;;;;;17.10;9.70;;;;;;;13.62;61.06;95955.00;4945390;28;20179;-79
2022/03/30 01:23:16;;;;;;;12.55;8.68;;;;;;;13.67;60.55;95958.31;4946795;28;20628;-79
2022/03/30 01:25:42;;;;;;;13.30;8.40;;;;;;;13.73;60.71;95953.72;4944827;28;20126;-79
2022/03/30 01:28:07;;;;;;;15.35;9.00;;;;;;;13.69;60.44;95944.91;4943185;28;20290;-79
2022/03/30 01:33:17;;;;;;;18.83;10.63;;;;;;;13.55;61.50;95942.31;4938549;28;20811;-79
2022/03/30 01:35:42;;;;;;;15.57;10.13;;;;;;;13.50;61.54;95931.97;4962539;28;20282;-79
2022/03/30 01:38:07;;;;;;;18.50;9.68;;;;;;;13.54;61.21;95929.53;4946473;28;20282;-79
2022/03/30 01:40:34;;;;;;;16.15;10.25;;;;;;;13.62;61.34;95923.63;4920280;28;20201;-79
2022/03/30 01:42:59;;;;;;;13.25;9.68;;;;;;;13.64;61.41;95930.13;4917581;28;20611;-79
2022/03/30 01:45:25;;;;;;;14.77;9.60;;;;;;;13.64;61.28;95914.44;4946986;28;20223;-79
2022/03/30 01:47:57;;;;;;;15.63;10.20;;;;;;;13.49;61.23;95909.53;4930085;28;20279;-79
2022/03/30 01:50:23;;;;;;;17.65;10.10;;;;;;;13.60;61.15;95907.44;4945727;28;20330;-79
2022/03/30 01:52:49;;;;;;;16.13;9.77;;;;;;;13.58;61.51;95915.59;4947304;28;20711;-79
2022/03/30 01:55:15;;;;;;;17.83;9.52;;;;;;;13.46;61.33;95902.25;4947963;28;20252;-79
2022/03/30 01:57:41;;;;;;;17.40;9.90;;;;;;;13.44;61.69;95901.78;4950009;28;20273;-80
2022/03/30 02:00:07;;;;;;;12.55;9.55;;;;;;;13.50;61.59;95890.13;4949615;28;20196;-79
2022/03/30 02:02:32;;;;;;;16.10;10.45;;;;;;;13.49;61.72;95888.59;4917299;28;20208;-79
2022/03/30 02:04:58;;;;;;;15.20;9.30;;;;;;;13.42;61.87;95896.06;4933081;28;20195;-79
2022/03/30 02:07:23;;;;;;;15.73;9.68;;;;;;;13.47;61.48;95885.50;4936288;28;20249;-79
2022/03/30 02:09:49;;;;;;;18.10;10.13;;;;;;;13.42;61.51;95885.63;4949116;28;20703;-80
2022/03/30 02:12:15;;;;;;;17.40;9.88;;;;;;;13.40;61.68;95896.38;4948197;28;20142;-79
2022/03/30 02:14:41;;;;;;;20.13;11.80;;;;;;;13.39;62.10;95878.34;4946560;28;20207;-79
2022/03/30 02:17:07;;;;;;;16.13;10.00;;;;;;;13.46;61.76;95881.34;4945370;28;20354;-79
2022/03/30 02:19:32;;;;;;;16.65;11.25;;;;;;;13.45;62.21;95877.16;4916786;28;20242;-80
2022/03/30 02:21:58;;;;;;;16.88;10.23;;;;;;;13.45;61.83;95866.72;4937061;28;20218;-79
2022/03/30 02:24:24;;;;;;;15.20;10.05;;;;;;;13.49;61.55;95863.22;4948510;28;20171;-79
2022/03/30 02:26:50;;;;;;;12.93;9.35;;;;;;;13.49;62.07;95862.44;4932987;28;20669;-79
2022/03/30 02:29:16;;;;;;;16.20;10.23;;;;;;;13.48;61.46;95856.44;4938552;28;20115;-79
2022/03/30 02:31:43;;;;;;;17.05;10.82;;;;;;;13.40;61.97;95858.97;4947788;28;20574;-80
2022/03/30 02:34:09;;;;;;;16.92;10.65;;;;;;;13.37;62.31;95849.88;4931263;28;20293;-79
2022/03/30 02:36:34;;;;;;;19.60;10.73;;;;;;;13.33;62.42;95848.91;4964065;28;20246;-80
2022/03/30 02:38:59;;;;;;;19.75;11.27;;;;;;;13.23;62.74;95846.50;4947023;28;20278;-79
2022/03/30 02:41:25;;;;;;;21.27;11.38;;;;;;;13.21;63.01;95846.00;4929336;28;20201;-79
2022/03/30 02:43:50;;;;;;;16.60;10.98;;;;;;;13.26;62.45;95844.09;4912128;28;20705;-79
2022/03/30 02:46:16;;;;;;;17.17;10.52;;;;;;;13.30;62.22;95842.41;4931610;28;20637;-79
2022/03/30 02:48:42;;;;;;;18.42;9.68;;;;;;;13.35;62.09;95838.16;4947050;28;20169;-79
2022/03/30 02:51:09;;;;;;;19.55;11.40;;;;;;;13.32;62.18;95846.63;4941895;28;20536;-79
2022/03/30 02:53:35;;;;;;;17.95;11.93;;;;;;;13.28;61.95;95836.72;4912458;28;20256;-79
2022/03/30 02:56:01;;;;;;;16.70;11.57;;;;;;;13.24;62.84;95835.75;4946543;28;20378;-80
2022/03/30 02:58:28;;;;;;;16.80;11.25;;;;;;;13.27;62.38;95835.16;4948482;28;20206;-79
2022/03/30 03:00:56;;;;;;;17.70;11.82;;;;;;;13.33;62.02;95832.47;4947198;28;20295;-80
2022/03/30 03:03:22;;;;;;;17.27;11.43;;;;;;;13.34;62.54;95829.56;4946237;28;20164;-79
2022/03/30 03:05:48;;;;;;;14.00;10.35;;;;;;;13.36;62.27;95826.66;4947483;28;20286;-79
2022/03/30 03:08:13;;;;;;;16.23;10.65;;;;;;;13.34;62.20;95823.56;4930686;28;20658;-79
2022/03/30 03:10:40;;;;;;;15.63;10.40;;;;;;;13.33;62.20;95827.25;4943414;28;20219;-79
2022/03/30 03:13:06;;;;;;;16.55;10.60;;;;;;;13.38;62.12;95821.91;4947070;28;20234;-78
2022/03/30 03:15:34;;;;;;;17.80;10.05;;;;;;;13.33;62.55;95822.78;4946485;28;20284;-79
2022/03/30 03:18:01;;;;;;;16.95;10.88;;;;;;;13.41;62.34;95823.94;4946578;28;20283;-79
2022/03/30 03:20:27;;;;;;;14.48;10.07;;;;;;;13.36;62.06;95814.34;4945382;28;20652;-79
2022/03/30 03:22:53;;;;;;;12.02;9.65;;;;;;;13.43;61.70;95811.31;4933720;28;20596;-79
2022/03/30 03:25:18;;;;;;;16.85;10.75;;;;;;;13.42;61.81;95820.25;4946277;28;20261;-79
2022/03/30 03:27:44;;;;;;;14.68;9.45;;;;;;;13.39;61.56;95816.38;4959111;28;21432;-79
2022/03/30 03:30:10;;;;;;;15.07;10.05;;;;;;;13.38;61.71;95821.91;4946629;28;20253;-79
2022/03/30 03:32:36;;;;;;;15.13;10.10;;;;;;;13.34;62.35;95823.56;4923480;28;20321;-79
2022/03/30 03:35:02;;;;;;;13.68;9.90;;;;;;;13.33;62.06;95814.94;4946034;28;20199;-79
2022/03/30 03:37:27;;;;;;;15.52;10.68;;;;;;;13.44;61.49;95820.72;4946106;28;20348;-79
2022/03/30 03:39:53;;;;;;;17.13;11.18;;;;;;;13.38;62.21;95819.28;4945498;28;20263;-79
2022/03/30 03:42:18;;;;;;;15.95;10.77;;;;;;;13.39;61.63;95820.84;4928340;28;20181;-78
2022/03/30 03:44:44;;;;;;;17.13;11.05;;;;;;;13.49;60.87;95821.38;4933834;28;20216;-79
2022/03/30 03:47:09;;;;;;;17.00;10.20;;;;;;;13.43;61.56;95827.78;4947435;28;20102;-79
2022/03/30 03:49:38;;;;;;;15.05;9.82;;;;;;;13.41;61.26;95835.16;4960926;28;20306;-80
2022/03/30 03:52:05;;;;;;;17.25;10.82;;;;;;;13.30;61.46;95824.13;4961214;28;20264;-79
2022/03/30 03:54:31;;;;;;;18.15;10.07;;;;;;;13.41;61.40;95832.53;4940081;28;20274;-79
2022/03/30 03:56:56;;;;;;;15.40;9.90;;;;;;;13.33;61.87;95822.00;4925879;28;20175;-79
2022/03/30 03:59:22;;;;;;;16.67;10.55;;;;;;;13.21;61.83;95810.22;4916882;28;20212;-79
2022/03/30 04:01:47;;;;;;;17.00;11.35;;;;;;;13.13;62.61;95803.06;4944285;28;20704;-79
2022/03/30 04:04:12;;;;;;;19.48;11.13;;;;;;;13.00;62.69;95809.09;4945079;28;20281;-78
2022/03/30 04:06:37;;;;;;;18.38;11.00;;;;;;;12.99;62.98;95797.06;4945110;28;20224;-79
2022/03/30 04:09:03;;;;;;;16.50;11.25;;;;;;;13.13;62.73;95797.84;4941362;28;20170;-78
2022/03/30 04:11:28;;;;;;;16.70;10.88;;;;;;;13.17;62.29;95798.78;4910413;28;20712;-79
2022/03/30 04:13:54;;;;;;;17.92;10.13;;;;;;;13.27;61.80;95798.56;4943228;28;20242;-79
2022/03/30 04:16:21;;;;;;;16.50;10.38;;;;;;;13.21;62.16;95802.38;4939590;28;20250;-78
2022/03/30 04:18:46;;;;;;;13.60;9.98;;;;;;;13.24;62.25;95798.38;4943897;28;20174;-78
2022/03/30 04:21:11;;;;;;;16.17;9.50;;;;;;;13.32;61.72;95799.56;4945852;28;20690;-79
2022/03/30 04:23:37;;;;;;;16.30;11.50;;;;;;;13.23;62.38;95788.97;4930183;28;20291;-79
2022/03/30 04:26:03;;;;;;;15.57;9.50;;;;;;;13.22;62.09;95790.84;4903765;28;20192;-78
2022/03/30 04:28:40;;;;;;;;;;;;;;;12.85;63.26;95787.44;4941730;28;20213;-79
2022/03/30 04:31:15;;;;;;;15.60;10.15;;;;;;;13.03;62.66;95787.59;4939776;28;20379;-79
2022/03/30 04:33:41;;;;;;;17.55;11.27;;;;;;;13.17;62.15;95785.72;4928270;28;20207;-79
2022/03/30 04:36:07;;;;;;;19.88;11.98;;;;;;;13.13;62.83;95787.38;4944733;28;20276;-79
2022/03/30 04:38:33;;;;;;;17.25;12.20;;;;;;;13.14;62.47;95788.16;4927937;28;20154;-78
2022/03/30 04:40:59;;;;;;;18.35;12.45;;;;;;;13.15;62.21;95779.25;4944825;28;20208;-79
2022/03/30 04:43:24;;;;;;;19.30;12.20;;;;;;;13.07;62.58;95788.56;4939038;28;20239;-79
2022/03/30 04:45:50;;;;;;;21.15;12.90;;;;;;;12.96;63.00;95779.41;4939192;28;20651;-79
2022/03/30 04:48:15;;;;;;;18.35;12.88;;;;;;;13.00;63.39;95775.88;4944581;28;20274;-78
2022/03/30 04:50:41;;;;;;;19.60;11.57;;;;;;;13.01;63.25;95772.22;4943978;28;20630;-79
2022/03/30 04:53:06;;;;;;;16.65;12.73;;;;;;;12.94;63.39;95766.63;4944531;28;20177;-78
2022/03/30 04:55:32;;;;;;;19.30;12.07;;;;;;;12.96;63.54;95771.56;4942291;28;20786;-78
2022/03/30 04:57:58;;;;;;;19.77;11.90;;;;;;;12.90;63.22;95769.06;4931407;28;20203;-79
2022/03/30 05:00:23;;;;;;;19.63;12.07;;;;;;;12.79;64.04;95765.09;4945628;28;20221;-78
2022/03/30 05:02:49;;;;;;;20.60;12.95;;;;;;;12.80;63.98;95764.03;4929187;28;20197;-79
2022/03/30 05:05:14;;;;;;;17.90;11.57;;;;;;;12.95;63.31;95773.38;4944951;28;20176;-78
2022/03/30 05:07:40;;;;;;;16.80;12.05;;;;;;;13.00;63.34;95769.91;4928183;28;20191;-78
2022/03/30 05:10:09;;;;;;;18.48;12.02;;;;;;;12.91;63.64;95765.34;4942970;28;20230;-78
2022/03/30 05:12:34;;;;;;;18.27;12.95;;;;;;;13.00;63.54;95762.06;4923028;28;20650;-78
2022/03/30 05:15:00;;;;;;;27.45;18.95;;;;;;;12.97;63.31;95760.03;4947593;28;20258;-79
2022/03/30 05:17:26;;;;;;;20.58;16.73;;;;;;;13.00;63.01;95762.06;4946030;28;20268;-78
2022/03/30 05:19:51;;;;;;;22.00;14.02;;;;;;;12.97;63.51;95752.19;4931086;28;20192;-78
2022/03/30 05:22:17;;;;;;;25.02;15.40;;;;;;;12.87;63.83;95763.66;4947598;28;20285;-78
2022/03/30 05:24:43;;;;;;;29.02;18.25;;;;;;;12.65;64.56;95761.75;4947643;28;20715;-78
2022/03/30 05:27:09;;;;;;;30.38;19.52;;;;;;;12.63;64.70;95758.63;4959896;28;20183;-78
2022/03/30 05:29:35;;;;;;;29.67;18.77;;;;;;;12.50;64.91;95760.19;4927614;28;20176;-78
2022/03/30 05:32:01;;;;;;;31.08;18.85;;;;;;;12.61;64.66;95765.97;4931071;28;20185;-78
2022/03/30 05:34:27;;;;;;;31.60;19.38;;;;;;;12.38;65.30;95758.06;4963682;28;20203;-78
2022/03/30 05:36:52;;;;;;;33.17;21.27;;;;;;;12.34;65.55;95763.09;4939169;28;20251;-78
2022/03/30 05:39:17;;;;;;;30.83;19.67;;;;;;;12.55;64.73;95767.94;4962376;28;20161;-78
2022/03/30 05:41:43;;;;;;;30.30;18.35;;;;;;;12.14;65.74;95769.47;4938315;28;20168;-78
2022/03/30 05:44:08;;;;;;;32.65;17.08;;;;;;;12.18;65.50;95757.41;4932070;28;20187;-78
2022/03/30 05:46:36;;;;;;;33.70;19.02;;;;;;;12.27;64.66;95767.13;4948082;28;20255;-78
2022/03/30 05:49:02;;;;;;;31.48;17.75;;;;;;;11.86;65.62;95765.22;4935284;28;20170;-77
2022/03/30 05:51:28;;;;;;;34.15;19.17;;;;;;;11.83;65.50;95768.44;4946074;28;20247;-77
2022/03/30 05:53:53;;;;;;;34.53;17.02;;;;;;;11.62;65.58;95776.56;4941478;28;20293;-78
2022/03/30 05:56:18;;;;;;;34.13;19.13;;;;;;;11.82;64.81;95778.06;4948086;28;20161;-77
2022/03/30 05:58:44;;;;;;;36.92;18.65;;;;;;;11.62;65.27;95781.78;4947951;28;20231;-77
2022/03/30 06:01:09;;;;;;;35.78;18.08;;;;;;;11.35;66.10;95778.00;4949265;28;20307;-77
2022/03/30 06:03:37;;;;;;;33.13;17.52;;;;;;;10.89;66.35;95778.66;4947807;28;20207;-78
2022/03/30 06:06:06;;;;;;;33.45;17.92;;;;;;;10.59;66.46;95785.00;4935554;28;20654;-77
2022/03/30 06:08:32;;;;;;;35.17;18.15;;;;;;;10.85;66.50;95782.88;4934344;28;20243;-76
2022/03/30 06:10:58;;;;;;;38.47;20.15;;;;;;;10.67;66.59;95782.53;4949317;28;20634;-76
2022/03/30 06:13:23;;;;;;;39.05;18.67;;;;;;;10.50;66.71;95777.03;4949211;28;20177;-76
2022/03/30 06:15:48;;;;;;;38.03;19.90;;;;;;;10.26;67.31;95785.59;4946289;28;20195;-77
2022/03/30 06:18:14;;;;;;;42.10;19.92;;;;;;;10.25;67.19;95780.66;4946838;28;20192;-76
2022/03/30 06:20:40;;;;;;;45.55;19.73;;;;;;;10.45;67.97;95793.50;4933943;28;20289;-76
2022/03/30 06:23:05;;;;;;;47.55;22.55;;;;;;;10.34;67.73;95788.66;4946895;28;20219;-76
2022/03/30 06:25:32;;;;;;;45.30;20.00;;;;;;;10.52;66.61;95787.94;4945433;28;20661;-76
2022/03/30 06:27:58;;;;;;;44.30;21.33;;;;;;;10.20;67.47;95788.53;4946691;28;20257;-76
2022/03/30 06:30:24;;;;;;;50.13;22.10;;;;;;;10.20;67.17;95788.53;4946784;28;20167;-76
2022/03/30 06:32:51;;;;;;;46.47;21.60;;;;;;;9.99;67.76;95793.91;4946671;28;20207;-77
2022/03/30 06:35:20;;;;;;;50.15;22.38;;;;;;;10.05;67.79;95790.19;4917915;28;20197;-76
2022/03/30 06:37:46;;;;;;;49.72;22.02;;;;;;;10.18;67.21;95794.00;4961011;28;20256;-77
2022/03/30 06:40:13;;;;;;;53.28;22.70;;;;;;;10.19;67.47;95799.97;4946643;28;20191;-76
2022/03/30 06:42:39;;;;;;;48.85;21.70;;;;;;;10.32;66.90;95801.19;4932050;28;20279;-76
2022/03/30 06:45:07;;;;;;;52.78;24.90;;;;;;;10.34;66.71;95810.25;4943831;28;20419;-77
2022/03/30 06:47:32;;;;;;;51.92;24.20;;;;;;;10.21;67.18;95803.06;4927009;28;20298;-77
2022/03/30 06:49:58;;;;;;;60.78;26.73;;;;;;;10.16;67.19;95808.31;4943705;28;20300;-77
2022/03/30 06:52:24;;;;;;;47.92;23.13;;;;;;;10.15;67.69;95794.53;4927162;28;20287;-78
2022/03/30 06:54:49;;;;;;;54.00;23.52;;;;;;;10.31;67.20;95797.75;4946765;28;20665;-77
2022/03/30 06:57:14;;;;;;;55.72;23.50;;;;;;;10.35;67.01;95790.19;4946223;28;20277;-78
2022/03/30 06:59:40;;;;;;;52.45;23.17;;;;;;;10.37;67.10;95791.50;4946648;28;20278;-77
2022/03/30 07:02:06;;;;;;;56.63;23.95;;;;;;;10.47;66.83;95785.41;4945919;28;20173;-77
2022/03/30 07:04:31;;;;;;;51.13;24.20;;;;;;;10.51;66.69;95781.19;4946471;28;20634;-77
2022/03/30 07:12:25;;;;;;;52.80;24.15;;;;;;;10.55;66.30;95782.16;4946223;28;20254;-76
2022/03/30 07:14:50;;;;;;;53.33;24.30;;;;;;;10.33;67.30;95781.91;4941023;28;20714;-77
2022/03/30 07:17:16;;;;;;;49.40;23.55;;;;;;;10.46;66.50;95778.66;4942660;28;20193;-76
2022/03/30 07:19:41;;;;;;;45.88;22.50;;;;;;;10.50;66.31;95787.44;4944210;28;20203;-77
2022/03/30 07:22:09;;;;;;;54.00;23.27;;;;;;;10.29;67.07;95786.84;4947435;28;20318;-76
2022/03/30 07:24:35;;;;;;;53.63;23.45;;;;;;;10.58;66.23;95789.44;4929269;28;20708;-77
2022/03/30 07:27:00;;;;;;;52.55;23.83;;;;;;;10.39;66.70;95786.78;4945908;28;20286;-77
2022/03/30 07:29:26;;;;;;;52.30;23.38;;;;;;;10.35;66.78;95785.00;4945016;28;20199;-78
2022/03/30 07:31:51;;;;;;;48.53;23.50;;;;;;;10.65;66.02;95782.06;4946712;28;20173;-77
2022/03/30 07:34:17;;;;;;;52.35;23.48;;;;;;;10.57;66.27;95780.06;4945703;28;20682;-77
2022/03/30 07:36:42;;;;;;;50.95;23.10;;;;;;;10.64;66.48;95780.53;4946319;28;20774;-77
2022/03/30 07:39:08;;;;;;;57.33;24.50;;;;;;;10.75;66.12;95777.78;4946966;28;20199;-77
2022/03/30 07:41:33;;;;;;;54.25;24.35;;;;;;;10.78;66.20;95785.03;4945258;28;20277;-77
2022/03/30 07:43:58;;;;;;;52.00;24.98;;;;;;;10.70;66.49;95789.03;4947340;28;20302;-76
2022/03/30 07:46:23;;;;;;;56.67;23.75;;;;;;;10.81;66.13;95785.25;4926851;28;20208;-77
2022/03/30 07:48:49;;;;;;;51.72;24.42;;;;;;;10.70;66.54;95789.03;4944944;28;20146;-77
2022/03/30 07:51:14;;;;;;;52.33;24.17;;;;;;;10.54;66.73;95778.03;4926097;28;20170;-77
2022/03/30 07:53:39;;;;;;;51.70;24.75;;;;;;;10.42;67.22;95775.81;4938833;28;20195;-76
2022/03/30 07:56:05;;;;;;;57.25;25.38;;;;;;;10.77;66.52;95775.69;4928361;28;20734;-77
2022/03/30 07:58:30;;;;;;;54.95;23.60;;;;;;;10.78;66.73;95782.41;4944652;28;20212;-77
2022/03/30 08:00:56;;;;;;;55.15;24.38;;;;;;;10.82;66.39;95786.78;4946868;28;20165;-77
2022/03/30 08:03:21;;;;;;;50.60;22.52;;;;;;;10.62;66.29;95785.19;4944973;28;20281;-76
2022/03/30 08:05:47;;;;;;;53.20;22.63;;;;;;;10.79;66.52;95791.78;4961577;28;20173;-76
2022/03/30 08:08:13;;;;;;;49.70;22.50;;;;;;;10.65;66.72;95782.06;4944575;28;20219;-76
2022/03/30 08:10:39;;;;;;;50.83;22.95;;;;;;;10.75;66.42;95786.38;4945197;28;20203;-76
2022/03/30 08:13:04;;;;;;;57.40;24.30;;;;;;;10.60;66.69;95792.53;4944950;28;20207;-76
2022/03/30 08:15:31;;;;;;;45.45;21.77;;;;;;;10.35;67.51;95792.81;4928404;28;20257;-76
2022/03/30 08:17:56;;;;;;;55.25;24.15;;;;;;;10.61;67.02;95798.53;4946149;28;20649;-77
2022/03/30 08:23:07;;;;;;;49.78;22.48;;;;;;;10.75;67.09;95799.38;4958609;28;20286;-77
2022/03/30 08:25:33;;;;;;;52.83;22.30;;;;;;;10.60;66.85;95797.72;4944805;28;20724;-77
2022/03/30 08:27:59;;;;;;;51.22;22.00;;;;;;;10.53;67.62;95807.69;4928354;28;20640;-76
2022/03/30 08:30:25;;;;;;;46.53;20.80;;;;;;;10.60;67.34;95802.94;4928693;28;20253;-77
2022/03/30 08:32:50;;;;;;;46.88;21.85;;;;;;;10.71;67.02;95795.81;4928508;28;20164;-77
2022/03/30 08:35:16;;;;;;;45.75;20.98;;;;;;;10.68;66.93;95804.16;4944706;28;20242;-77
2022/03/30 08:37:41;;;;;;;43.70;21.55;;;;;;;10.46;67.96;95807.25;4927094;28;20215;-77
2022/03/30 08:40:07;;;;;;;44.88;21.25;;;;;;;10.50;67.81;95795.25;4958692;28;20708;-77
2022/03/30 08:42:34;;;;;;;43.25;20.67;;;;;;;10.71;67.55;95802.81;4934608;28;20282;-76
2022/03/30 08:45:02;;;;;;;42.92;20.48;;;;;;;10.58;67.50;95794.63;4941119;28;20234;-77
2022/03/30 08:47:28;;;;;;;43.67;20.20;;;;;;;10.81;67.15;95794.88;4941085;28;20180;-77
2022/03/30 08:49:53;;;;;;;42.55;19.92;;;;;;;10.72;67.10;95801.78;4922162;28;20617;-77
2022/03/30 08:52:18;;;;;;;40.05;18.13;;;;;;;10.61;67.17;95794.09;4937936;28;20673;-77
2022/03/30 08:54:46;;;;;;;38.97;17.73;;;;;;;10.72;67.41;95799.16;4927869;28;20195;-77
2022/03/30 08:57:12;;;;;;;37.83;17.73;;;;;;;10.54;67.87;95798.06;4944559;28;20532;-77
2022/03/30 08:59:37;;;;;;;41.92;18.65;;;;;;;10.73;67.45;95798.09;4934796;28;20191;-77
2022/03/30 09:02:03;;;;;;;38.00;17.45;;;;;;;10.61;67.69;95801.88;4943612;28;20162;-77
2022/03/30 09:04:28;;;;;;;40.03;18.00;;;;;;;10.71;67.40;95803.59;4926244;28;20320;-77
2022/03/30 09:06:56;;;;;;;38.45;18.00;;;;;;;10.48;68.40;95794.75;4941459;28;20204;-77
2022/03/30 09:09:35;;;;;;;43.40;18.63;;;;;;;10.08;69.49;95796.69;4943185;28;20603;-77
2022/03/30 09:12:06;;;;;;;40.25;18.55;;;;;;;10.04;69.53;95803.47;4943561;28;21132;-77
2022/03/30 09:14:34;;;;;;;37.90;17.77;;;;;;;10.29;68.57;95802.47;4927522;28;20310;-78
2022/03/30 09:17:04;;;;;;;37.30;18.00;;;;;;;10.28;69.00;95796.50;4926226;28;20196;-78
2022/03/30 09:19:36;;;;;;;42.17;18.80;;;;;;;10.52;68.38;95795.75;4943787;28;20270;-77
2022/03/30 09:22:03;;;;;;;40.55;19.48;;;;;;;10.43;68.56;95792.97;4921861;28;20199;-78
2022/03/30 09:24:31;;;;;;;40.10;18.92;;;;;;;10.63;68.26;95797.19;4943605;28;20305;-77
2022/03/30 09:26:57;;;;;;;36.15;17.17;;;;;;;10.51;68.82;95798.63;4927803;28;20177;-78
2022/03/30 09:29:25;;;;;;;32.53;16.90;;;;;;;10.24;68.73;95797.31;4940553;28;20195;-77
2022/03/30 09:31:51;;;;;;;32.53;15.90;;;;;;;10.40;68.70;95800.56;4938376;28;20223;-76
2022/03/30 09:34:18;;;;;;;38.83;16.00;;;;;;;10.79;67.62;95794.38;4944092;28;20340;-78
2022/03/30 09:36:44;;;;;;;34.80;17.10;;;;;;;10.73;68.04;95803.31;4928179;28;20290;-77
2022/03/30 09:39:31;;;;;;;32.20;15.98;;;;;;;10.66;67.45;95794.03;4938425;28;20189;-77
2022/03/30 09:41:59;;;;;;;33.40;17.45;;;;;;;10.95;67.31;95798.38;4928297;28;20274;-78
2022/03/30 09:44:26;;;;;;;30.83;15.90;;;;;;;10.88;67.06;95803.13;4925570;28;20295;-78
2022/03/30 09:46:53;;;;;;;34.63;17.55;;;;;;;10.95;66.82;95800.97;4959429;28;20329;-77
2022/03/30 09:49:31;;;;;;;35.22;16.25;;;;;;;10.74;67.27;95802.25;4960335;28;20891;-77
2022/03/30 09:51:56;;;;;;;35.40;17.70;;;;;;;10.63;67.76;95793.81;4908659;28;20717;-77
2022/03/30 09:54:47;;;;;;;39.83;18.77;;;;;;;10.73;67.61;95796.28;4941634;28;20314;-77
2022/03/30 09:57:24;;;;;;;41.97;19.40;;;;;;;10.86;67.09;95800.81;4944978;28;20249;-77
2022/03/30 10:00:08;;;;;;;35.45;16.75;;;;;;;10.64;67.79;95801.34;4945282;28;20327;-77
2022/03/30 10:02:35;;;;;;;37.10;18.05;;;;;;;11.05;67.23;95800.84;4963777;28;20278;-78
2022/03/30 10:05:01;;;;;;;42.78;18.92;;;;;;;10.98;67.05;95794.41;4935209;28;20173;-78
2022/03/30 10:07:28;;;;;;;41.55;20.13;;;;;;;10.53;67.90;95797.28;4946706;28;20643;-78
2022/03/30 10:09:55;;;;;;;41.25;20.02;;;;;;;10.42;67.93;95801.84;4947306;28;20279;-76
2022/03/30 10:12:20;;;;;;;42.63;20.40;;;;;;;10.65;67.28;95799.50;4949162;28;20161;-77
2022/03/30 10:14:48;;;;;;;45.50;22.15;;;;;;;10.40;67.07;95798.75;4962007;28;20208;-77
2022/03/30 10:17:14;;;;;;;45.13;21.15;;;;;;;10.85;66.79;95793.28;4946953;28;20191;-78
2022/03/30 10:19:44;;;;;;;46.58;22.73;;;;;;;10.78;66.78;95790.22;4947247;28;20211;-77
2022/03/30 10:22:30;;;;;;;48.00;21.65;;;;;;;10.38;67.70;95785.22;4941034;28;20334;-77
2022/03/30 10:25:34;;;;;;;44.05;22.55;;;;;;;10.51;67.45;95785.63;4946467;28;20655;-76
2022/03/30 10:28:14;;;;;;;50.85;22.75;;;;;;;10.38;67.69;95782.63;4941912;28;20165;-77
2022/03/30 10:30:43;;;;;;;47.30;22.33;;;;;;;10.56;67.33;95775.16;4931109;28;20449;-76
2022/03/30 10:33:09;;;;;;;50.05;22.85;;;;;;;10.73;67.23;95779.88;4948653;28;20160;-76
2022/03/30 10:35:47;;;;;;;42.13;19.77;;;;;;;10.37;66.88;95780.31;4946722;28;20653;-77
2022/03/30 10:38:15;;;;;;;47.33;21.13;;;;;;;10.51;67.53;95777.81;4948107;28;20204;-77
2022/03/30 10:40:41;;;;;;;46.92;23.42;;;;;;;10.73;67.19;95777.28;4948292;28;20288;-76
2022/03/30 10:43:11;;;;;;;49.40;22.17;;;;;;;10.38;67.72;95787.06;4930262;28;20195;-77
2022/03/30 10:45:42;;;;;;;51.38;24.00;;;;;;;10.45;68.28;95788.28;4943840;28;20188;-76
2022/03/30 10:48:30;;;;;;;51.88;24.15;;;;;;;10.36;67.92;95781.34;4946392;28;20215;-76
2022/03/30 10:50:56;;;;;;;51.08;24.25;;;;;;;11.00;66.67;95785.28;4960380;28;20357;-77
2022/03/30 10:53:31;;;;;;;48.78;23.15;;;;;;;10.94;66.49;95775.97;4946508;28;20188;-76
2022/03/30 10:56:09;;;;;;;51.72;22.88;;;;;;;10.78;66.72;95777.22;4947357;28;20789;-75
2022/03/30 10:59:00;;;;;;;52.50;23.90;;;;;;;10.59;66.90;95769.38;4947774;28;20649;-76
2022/03/30 11:01:33;;;;;;;50.13;23.73;;;;;;;10.83;66.33;95772.72;4937965;28;20594;-76
2022/03/30 11:04:06;;;;;;;55.42;26.23;;;;;;;11.01;66.53;95776.41;4946132;28;20168;-76
2022/03/30 11:06:36;;;;;;;54.30;25.88;;;;;;;10.81;66.75;95766.25;4962485;28;20642;-76
2022/03/30 11:09:28;;;;;;;49.38;22.73;;;;;;;10.86;66.48;95771.38;4945730;28;20207;-77
2022/03/30 11:12:15;;;;;;;48.08;23.52;;;;;;;11.17;66.07;95763.97;4942876;28;20199;-77
2022/03/30 11:14:43;;;;;;;47.72;23.00;;;;;;;11.24;66.06;95768.78;4945969;28;20204;-75
2022/03/30 11:17:15;;;;;;;45.63;21.85;;;;;;;11.20;65.80;95758.16;4923691;28;20172;-77
2022/03/30 11:19:47;;;;;;;48.88;22.90;;;;;;;11.33;65.43;95755.91;4941026;28;20310;-77
2022/03/30 11:22:13;;;;;;;54.22;24.02;;;;;;;11.49;66.21;95759.06;4941506;28;20309;-77
2022/03/30 11:24:41;;;;;;;49.35;22.40;;;;;;;11.55;65.40;95756.09;4945387;28;20212;-76
2022/03/30 11:27:07;;;;;;;46.70;22.35;;;;;;;11.59;65.75;95757.06;4929308;28;20303;-76
2022/03/30 11:29:47;;;;;;;45.20;21.88;;;;;;;11.30;66.02;95754.63;4962152;28;20781;-77